LIMZ/CUF METAR and TAF weather

Enter ICAO airport designator
Station Type Date Time Source
LIMZ METAR 2019/08/24 18:50 UTC NOAA

LIMZ 241850Z 29003KT CAVOK 23/18 Q1019


Station Type Date Time Source
LIMZ Decoded METAR 2019/08/24 18:50 UTC NOAA

Station name not available
Aug 24, 2019 - 02:50 PM EDT / 2019.08.24 1850 UTC
Wind: from the WNW (290 degrees) at 3 MPH (3 KT):0
Visibility: greater than 7 mile(s):0
Temperature: 73 F (23 C)
Dew Point: 64 F (18 C)
Relative Humidity: 73%
Pressure (altimeter): 30.09 in. Hg (1019 hPa)
ob: LIMZ 241850Z 29003KT CAVOK 23/18 Q1019
cycle: 19

Station Type Date Time Source
LIMZ TAF 2019/08/24 18:21 UTC NOAA

TAF LIMZ 241700Z 2418/2518 VRB05KT 9999 SCT080

Example: see airport list